createdAt,value
2022-10-10T00:01:39.994Z,94333.81
2022-10-10T00:16:41.486Z,94352.19
2022-10-10T00:31:42.924Z,94334.84
2022-10-10T00:46:44.433Z,94339.38
2022-10-10T01:01:46.585Z,94340.69
2022-10-10T01:16:51.023Z,94345.09
2022-10-10T01:31:55.951Z,94340.47
2022-10-10T01:46:58.071Z,94334.34
2022-10-10T02:02:22.590Z,94339.34
2022-10-10T02:17:25.713Z,94341.22
2022-10-10T02:32:47.573Z,94355.44
2022-10-10T02:47:49.143Z,94345.69
2022-10-10T03:02:50.953Z,94349.00
2022-10-10T03:17:52.582Z,94346.44
2022-10-10T03:32:54.218Z,94360.72
2022-10-10T03:47:55.730Z,94377.41
2022-10-10T04:02:57.187Z,94371.69
2022-10-10T04:17:59.069Z,94372.28
2022-10-10T04:33:00.549Z,94381.25
2022-10-10T04:48:02.045Z,94372.56
2022-10-10T05:03:03.586Z,94381.75
2022-10-10T05:18:05.034Z,94384.44
2022-10-10T05:33:06.491Z,94401.81
2022-10-10T05:48:07.940Z,94413.72
2022-10-10T06:03:13.014Z,94422.56
2022-10-10T06:18:14.453Z,94435.81
2022-10-10T06:33:16.372Z,94434.88
2022-10-10T06:48:17.848Z,94451.59
2022-10-10T07:03:19.996Z,94455.97
2022-10-10T07:18:21.917Z,94449.91
2022-10-10T07:33:23.393Z,94454.56
2022-10-10T07:48:24.971Z,94438.75
2022-10-10T08:03:26.452Z,94438.34
2022-10-10T08:18:27.928Z,94430.72
2022-10-10T08:33:29.442Z,94427.53
2022-10-10T08:48:31.387Z,94435.63
2022-10-10T09:03:32.837Z,94448.34
2022-10-10T09:18:52.766Z,94459.06
2022-10-10T09:34:14.505Z,94463.91
2022-10-10T09:49:17.748Z,94458.84
2022-10-10T10:04:28.833Z,94463.09
2022-10-10T10:19:35.702Z,94460.94
2022-10-10T10:34:37.250Z,94440.31
2022-10-10T10:49:48.727Z,94441.56
2022-10-10T11:05:22.508Z,94413.72
2022-10-10T11:20:24.934Z,94406.97
2022-10-10T11:35:26.388Z,94387.44
2022-10-10T11:50:29.068Z,94366.13
2022-10-10T12:05:31.243Z,94345.22
2022-10-10T12:20:34.289Z,94337.75
2022-10-10T12:35:35.834Z,94320.91
2022-10-10T12:50:40.172Z,94320.47
2022-10-10T13:05:41.857Z,94319.19
2022-10-10T13:20:43.364Z,94315.63
2022-10-10T13:35:46.099Z,94313.41
2022-10-10T13:50:53.848Z,94317.44
2022-10-10T14:05:55.581Z,94316.13
2022-10-10T14:20:57.056Z,94308.22
2022-10-10T14:35:59.560Z,94297.91
2022-10-10T14:51:01.477Z,94293.09
2022-10-10T15:06:22.528Z,94292.75
2022-10-10T15:21:24.025Z,94295.97
2022-10-10T15:36:25.676Z,94286.75
2022-10-10T15:51:28.118Z,94284.22
2022-10-10T16:06:29.639Z,94281.69
2022-10-10T16:21:33.506Z,94292.81
2022-10-10T16:36:36.961Z,94302.81
2022-10-10T16:51:38.412Z,94300.03
2022-10-10T17:06:40.062Z,94306.22
2022-10-10T17:21:41.569Z,94300.63
2022-10-10T17:36:43.104Z,94304.06
2022-10-10T17:51:44.640Z,94309.25
2022-10-10T18:06:46.153Z,94300.06
2022-10-10T18:21:49.036Z,94307.66
2022-10-10T18:36:50.732Z,94287.25
2022-10-10T18:51:52.242Z,94296.72
2022-10-10T19:06:57.671Z,94299.47
2022-10-10T19:21:59.501Z,94297.19
2022-10-10T19:37:00.958Z,94291.19
2022-10-10T19:52:02.424Z,94302.81
2022-10-10T20:07:03.939Z,94285.38
2022-10-10T20:22:05.572Z,94287.38
2022-10-10T20:37:07.132Z,94294.44
2022-10-10T20:52:08.725Z,94309.72
2022-10-10T21:07:10.167Z,94316.50
2022-10-10T21:22:11.603Z,94308.34
2022-10-10T21:37:13.080Z,94302.38
2022-10-10T21:52:14.572Z,94286.25
2022-10-10T22:16:08.445Z,94275.13
2022-10-10T22:31:11.506Z,94267.09
2022-10-10T22:46:13.053Z,94255.91
2022-10-10T23:01:16.171Z,94262.97
2022-10-10T23:16:17.785Z,94261.75
2022-10-10T23:31:19.254Z,94258.78
2022-10-10T23:46:20.728Z,94243.28
